sensor_id;sensor_type;location;lat;lon;timestamp;temperature;humidity
50907;DHT22;36882;27.680;85.304;2022-07-10T00:00:15;24.30;99.90
50907;DHT22;36882;27.680;85.304;2022-07-10T00:03:23;24.30;99.90
50907;DHT22;36882;27.680;85.304;2022-07-10T00:05:53;24.30;99.90
50907;DHT22;36882;27.680;85.304;2022-07-10T00:08:39;24.30;99.90
50907;DHT22;36882;27.680;85.304;2022-07-10T00:11:09;24.30;99.90
50907;DHT22;36882;27.680;85.304;2022-07-10T00:13:52;24.30;99.90
50907;DHT22;36882;27.680;85.304;2022-07-10T00:16:38;24.30;99.90
50907;DHT22;36882;27.680;85.304;2022-07-10T00:19:11;24.30;99.90
50907;DHT22;36882;27.680;85.304;2022-07-10T00:21:57;24.30;99.90
50907;DHT22;36882;27.680;85.304;2022-07-10T00:24:40;24.40;99.90
50907;DHT22;36882;27.680;85.304;2022-07-10T00:27:26;24.50;99.90
50907;DHT22;36882;27.680;85.304;2022-07-10T00:30:30;24.50;99.90
50907;DHT22;36882;27.680;85.304;2022-07-10T00:33:01;24.60;99.90
50907;DHT22;36882;27.680;85.304;2022-07-10T00:36:02;24.70;99.90
50907;DHT22;36882;27.680;85.304;2022-07-10T00:38:32;24.80;99.90
50907;DHT22;36882;27.680;85.304;2022-07-10T00:41:32;25.00;99.90
50907;DHT22;36882;27.680;85.304;2022-07-10T00:44:04;25.10;99.90
50907;DHT22;36882;27.680;85.304;2022-07-10T00:46:57;25.30;99.70
50907;DHT22;36882;27.680;85.304;2022-07-10T00:49:27;25.50;99.30
50907;DHT22;36882;27.680;85.304;2022-07-10T00:52:20;25.60;98.90
50907;DHT22;36882;27.680;85.304;2022-07-10T00:55:31;25.70;98.10
50907;DHT22;36882;27.680;85.304;2022-07-10T00:58:17;25.90;98.60
50907;DHT22;36882;27.680;85.304;2022-07-10T01:01:04;26.30;98.90
50907;DHT22;36882;27.680;85.304;2022-07-10T01:03:35;26.60;98.10
50907;DHT22;36882;27.680;85.304;2022-07-10T03:15:06;28.40;92.70
50907;DHT22;36882;27.680;85.304;2022-07-10T03:17:56;28.60;92.90
50907;DHT22;36882;27.680;85.304;2022-07-10T03:20:40;29.20;92.10
50907;DHT22;36882;27.680;85.304;2022-07-10T03:23:43;29.80;91.20
50907;DHT22;36882;27.680;85.304;2022-07-10T03:26:33;30.20;88.60
50907;DHT22;36882;27.680;85.304;2022-07-10T03:29:09;30.50;90.30
50907;DHT22;36882;27.680;85.304;2022-07-10T03:31:53;30.60;88.40
50907;DHT22;36882;27.680;85.304;2022-07-10T03:38:21;30.60;86.10
50907;DHT22;36882;27.680;85.304;2022-07-10T03:40:54;30.30;90.00
50907;DHT22;36882;27.680;85.304;2022-07-10T03:43:25;30.30;86.60
50907;DHT22;36882;27.680;85.304;2022-07-10T03:49:44;30.40;90.50
50907;DHT22;36882;27.680;85.304;2022-07-10T03:52:38;30.60;87.10
50907;DHT22;36882;27.680;85.304;2022-07-10T03:55:09;30.70;86.30
50907;DHT22;36882;27.680;85.304;2022-07-10T03:57:39;30.70;90.00
50907;DHT22;36882;27.680;85.304;2022-07-10T04:00:30;30.70;86.00
50907;DHT22;36882;27.680;85.304;2022-07-10T04:03:39;30.60;85.20
50907;DHT22;36882;27.680;85.304;2022-07-10T04:06:29;30.50;87.30
50907;DHT22;36882;27.680;85.304;2022-07-10T04:09:14;30.50;88.00
50907;DHT22;36882;27.680;85.304;2022-07-10T04:11:45;30.60;87.10
50907;DHT22;36882;27.680;85.304;2022-07-10T04:14:55;30.70;88.90
50907;DHT22;36882;27.680;85.304;2022-07-10T04:17:53;30.90;86.80
50907;DHT22;36882;27.680;85.304;2022-07-10T04:20:34;31.00;84.80
50907;DHT22;36882;27.680;85.304;2022-07-10T04:23:06;31.00;86.50
50907;DHT22;36882;27.680;85.304;2022-07-10T04:25:37;30.90;86.50
50907;DHT22;36882;27.680;85.304;2022-07-10T04:28:34;30.80;83.90
50907;DHT22;36882;27.680;85.304;2022-07-10T04:31:49;30.80;86.30
50907;DHT22;36882;27.680;85.304;2022-07-10T04:34:38;30.80;86.60
50907;DHT22;36882;27.680;85.304;2022-07-10T04:37:35;30.90;84.80
50907;DHT22;36882;27.680;85.304;2022-07-10T04:40:07;31.00;85.20
50907;DHT22;36882;27.680;85.304;2022-07-10T04:43:25;31.10;86.40
50907;DHT22;36882;27.680;85.304;2022-07-10T04:46:15;31.10;85.40
50907;DHT22;36882;27.680;85.304;2022-07-10T04:48:45;31.10;86.30
50907;DHT22;36882;27.680;85.304;2022-07-10T04:51:16;31.10;86.90
50907;DHT22;36882;27.680;85.304;2022-07-10T04:54:08;31.20;85.80
50907;DHT22;36882;27.680;85.304;2022-07-10T04:57:29;31.30;86.40
50907;DHT22;36882;27.680;85.304;2022-07-10T05:00:09;31.30;83.70
50907;DHT22;36882;27.680;85.304;2022-07-10T05:03:12;31.30;86.40
50907;DHT22;36882;27.680;85.304;2022-07-10T05:06:13;31.30;84.70
50907;DHT22;36882;27.680;85.304;2022-07-10T05:08:44;31.20;85.10
50907;DHT22;36882;27.680;85.304;2022-07-10T05:11:34;31.20;85.00
50907;DHT22;36882;27.680;85.304;2022-07-10T05:14:23;31.20;86.10
50907;DHT22;36882;27.680;85.304;2022-07-10T05:17:28;31.30;82.50
50907;DHT22;36882;27.680;85.304;2022-07-10T05:20:15;31.20;84.20
50907;DHT22;36882;27.680;85.304;2022-07-10T05:22:58;31.20;85.50
50907;DHT22;36882;27.680;85.304;2022-07-10T05:26:12;31.40;84.30
50907;DHT22;36882;27.680;85.304;2022-07-10T05:32:02;31.50;84.10
50907;DHT22;36882;27.680;85.304;2022-07-10T05:34:53;31.50;83.40
50907;DHT22;36882;27.680;85.304;2022-07-10T05:37:24;31.60;84.40
50907;DHT22;36882;27.680;85.304;2022-07-10T05:39:58;31.60;84.50
50907;DHT22;36882;27.680;85.304;2022-07-10T05:42:48;31.60;83.60
50907;DHT22;36882;27.680;85.304;2022-07-10T05:45:19;31.70;83.20
50907;DHT22;36882;27.680;85.304;2022-07-10T05:48:10;31.80;84.80
50907;DHT22;36882;27.680;85.304;2022-07-10T05:51:15;31.80;85.40
50907;DHT22;36882;27.680;85.304;2022-07-10T05:54:31;31.90;83.80
50907;DHT22;36882;27.680;85.304;2022-07-10T05:57:22;32.10;84.20
50907;DHT22;36882;27.680;85.304;2022-07-10T06:00:14;32.00;85.80
50907;DHT22;36882;27.680;85.304;2022-07-10T06:03:25;32.00;86.10
50907;DHT22;36882;27.680;85.304;2022-07-10T06:06:52;32.00;85.10
50907;DHT22;36882;27.680;85.304;2022-07-10T06:09:23;32.10;85.20
50907;DHT22;36882;27.680;85.304;2022-07-10T06:11:55;32.00;85.20
50907;DHT22;36882;27.680;85.304;2022-07-10T06:15:03;32.00;84.00
50907;DHT22;36882;27.680;85.304;2022-07-10T06:17:34;32.10;82.80
50907;DHT22;36882;27.680;85.304;2022-07-10T06:20:05;32.30;81.10
50907;DHT22;36882;27.680;85.304;2022-07-10T06:22:36;32.30;84.00
50907;DHT22;36882;27.680;85.304;2022-07-10T06:25:08;32.40;85.40
50907;DHT22;36882;27.680;85.304;2022-07-10T06:27:38;32.40;85.10
50907;DHT22;36882;27.680;85.304;2022-07-10T06:30:09;32.50;85.40
50907;DHT22;36882;27.680;85.304;2022-07-10T06:32:55;32.60;84.80
50907;DHT22;36882;27.680;85.304;2022-07-10T06:35:26;32.70;85.40
50907;DHT22;36882;27.680;85.304;2022-07-10T06:37:57;32.70;85.00
50907;DHT22;36882;27.680;85.304;2022-07-10T06:40:29;32.70;85.50
50907;DHT22;36882;27.680;85.304;2022-07-10T06:43:15;32.70;86.60
50907;DHT22;36882;27.680;85.304;2022-07-10T06:45:46;32.80;87.60
50907;DHT22;36882;27.680;85.304;2022-07-10T06:48:17;32.90;83.70
50907;DHT22;36882;27.680;85.304;2022-07-10T06:50:48;33.00;86.70
50907;DHT22;36882;27.680;85.304;2022-07-10T06:53:19;33.00;85.00
50907;DHT22;36882;27.680;85.304;2022-07-10T06:55:54;33.00;85.70
50907;DHT22;36882;27.680;85.304;2022-07-10T06:58:25;33.10;86.50
50907;DHT22;36882;27.680;85.304;2022-07-10T07:00:55;33.20;86.30
50907;DHT22;36882;27.680;85.304;2022-07-10T07:03:26;33.40;85.60
50907;DHT22;36882;27.680;85.304;2022-07-10T07:05:56;33.40;84.60
50907;DHT22;36882;27.680;85.304;2022-07-10T07:08:29;33.50;85.20
50907;DHT22;36882;27.680;85.304;2022-07-10T07:11:00;33.50;84.30
50907;DHT22;36882;27.680;85.304;2022-07-10T07:13:30;33.40;85.00
50907;DHT22;36882;27.680;85.304;2022-07-10T07:16:01;33.40;85.20
50907;DHT22;36882;27.680;85.304;2022-07-10T07:18:51;33.20;84.80
50907;DHT22;36882;27.680;85.304;2022-07-10T07:21:22;33.10;84.50
50907;DHT22;36882;27.680;85.304;2022-07-10T07:24:09;33.00;86.50
50907;DHT22;36882;27.680;85.304;2022-07-10T07:26:40;33.10;85.80
50907;DHT22;36882;27.680;85.304;2022-07-10T07:29:11;33.20;84.70
50907;DHT22;36882;27.680;85.304;2022-07-10T07:31:42;33.20;85.30
50907;DHT22;36882;27.680;85.304;2022-07-10T07:34:12;33.20;84.60
50907;DHT22;36882;27.680;85.304;2022-07-10T07:36:44;33.20;83.40
50907;DHT22;36882;27.680;85.304;2022-07-10T07:39:14;33.30;84.60
50907;DHT22;36882;27.680;85.304;2022-07-10T07:41:45;33.30;84.00
50907;DHT22;36882;27.680;85.304;2022-07-10T07:44:31;33.30;83.10
50907;DHT22;36882;27.680;85.304;2022-07-10T07:47:01;33.30;82.90
50907;DHT22;36882;27.680;85.304;2022-07-10T07:49:32;33.30;83.40
50907;DHT22;36882;27.680;85.304;2022-07-10T07:52:04;33.30;82.70
50907;DHT22;36882;27.680;85.304;2022-07-10T07:54:34;33.30;82.60
50907;DHT22;36882;27.680;85.304;2022-07-10T07:57:05;33.10;83.90
50907;DHT22;36882;27.680;85.304;2022-07-10T07:59:36;33.00;83.70
50907;DHT22;36882;27.680;85.304;2022-07-10T08:02:06;32.90;84.70
50907;DHT22;36882;27.680;85.304;2022-07-10T08:04:37;32.80;83.50
50907;DHT22;36882;27.680;85.304;2022-07-10T08:07:07;32.70;84.90
50907;DHT22;36882;27.680;85.304;2022-07-10T08:09:38;32.60;84.30
50907;DHT22;36882;27.680;85.304;2022-07-10T08:12:08;32.50;85.70
50907;DHT22;36882;27.680;85.304;2022-07-10T08:14:39;32.40;86.30
50907;DHT22;36882;27.680;85.304;2022-07-10T08:17:09;32.50;86.70
50907;DHT22;36882;27.680;85.304;2022-07-10T08:19:40;32.60;86.90
50907;DHT22;36882;27.680;85.304;2022-07-10T09:41:36;32.00;83.10
50907;DHT22;36882;27.680;85.304;2022-07-10T09:44:07;31.80;82.50
50907;DHT22;36882;27.680;85.304;2022-07-10T09:46:39;31.70;83.70
50907;DHT22;36882;27.680;85.304;2022-07-10T09:49:12;31.70;83.10
50907;DHT22;36882;27.680;85.304;2022-07-10T09:51:45;31.70;85.70
50907;DHT22;36882;27.680;85.304;2022-07-10T09:54:16;31.70;86.30
50907;DHT22;36882;27.680;85.304;2022-07-10T09:56:49;31.70;86.00
50907;DHT22;36882;27.680;85.304;2022-07-10T09:59:21;31.80;86.60
50907;DHT22;36882;27.680;85.304;2022-07-10T10:01:53;31.80;85.70
50907;DHT22;36882;27.680;85.304;2022-07-10T10:04:24;31.90;83.40
50907;DHT22;36882;27.680;85.304;2022-07-10T10:07:02;32.00;84.40
50907;DHT22;36882;27.680;85.304;2022-07-10T10:09:38;32.20;83.40
50907;DHT22;36882;27.680;85.304;2022-07-10T10:12:17;32.40;82.70
50907;DHT22;36882;27.680;85.304;2022-07-10T10:14:51;32.40;83.30
50907;DHT22;36882;27.680;85.304;2022-07-10T10:17:24;32.50;83.80
50907;DHT22;36882;27.680;85.304;2022-07-10T10:20:15;32.60;86.50
50907;DHT22;36882;27.680;85.304;2022-07-10T10:23:00;32.60;85.10
50907;DHT22;36882;27.680;85.304;2022-07-10T10:25:53;32.50;84.00
50907;DHT22;36882;27.680;85.304;2022-07-10T10:29:18;32.60;83.80
50907;DHT22;36882;27.680;85.304;2022-07-10T10:32:27;32.50;83.90
50907;DHT22;36882;27.680;85.304;2022-07-10T10:34:59;32.20;83.90
50907;DHT22;36882;27.680;85.304;2022-07-10T10:40:32;31.80;84.70
50907;DHT22;36882;27.680;85.304;2022-07-10T10:43:23;31.60;85.30
50907;DHT22;36882;27.680;85.304;2022-07-10T10:49:05;31.10;85.90
50907;DHT22;36882;27.680;85.304;2022-07-10T10:52:01;30.80;87.20
50907;DHT22;36882;27.680;85.304;2022-07-10T10:57:50;30.60;88.20
50907;DHT22;36882;27.680;85.304;2022-07-10T11:00:34;30.50;87.90
50907;DHT22;36882;27.680;85.304;2022-07-10T11:03:24;30.20;88.20
50907;DHT22;36882;27.680;85.304;2022-07-10T11:05:55;30.10;89.40
50907;DHT22;36882;27.680;85.304;2022-07-10T11:08:42;30.00;89.50
50907;DHT22;36882;27.680;85.304;2022-07-10T11:14:35;29.90;88.20
50907;DHT22;36882;27.680;85.304;2022-07-10T11:17:45;29.90;88.10
50907;DHT22;36882;27.680;85.304;2022-07-10T11:20:37;29.90;88.80
50907;DHT22;36882;27.680;85.304;2022-07-10T11:28:15;29.90;89.60
50907;DHT22;36882;27.680;85.304;2022-07-10T11:30:16;29.90;89.70
50907;DHT22;36882;27.680;85.304;2022-07-10T11:32:47;29.90;90.10
50907;DHT22;36882;27.680;85.304;2022-07-10T11:35:34;29.90;89.90
50907;DHT22;36882;27.680;85.304;2022-07-10T11:38:37;29.80;90.00
50907;DHT22;36882;27.680;85.304;2022-07-10T11:44:17;29.70;89.80
50907;DHT22;36882;27.680;85.304;2022-07-10T11:47:40;29.70;90.10
50907;DHT22;36882;27.680;85.304;2022-07-10T11:50:51;29.70;89.90
50907;DHT22;36882;27.680;85.304;2022-07-10T11:53:24;29.60;90.30
50907;DHT22;36882;27.680;85.304;2022-07-10T11:55:55;29.50;90.30
50907;DHT22;36882;27.680;85.304;2022-07-10T11:58:25;29.50;90.70
50907;DHT22;36882;27.680;85.304;2022-07-10T12:00:59;29.40;90.50
50907;DHT22;36882;27.680;85.304;2022-07-10T12:03:32;29.40;90.40
50907;DHT22;36882;27.680;85.304;2022-07-10T12:06:05;29.30;90.30
50907;DHT22;36882;27.680;85.304;2022-07-10T12:08:47;29.20;90.80
50907;DHT22;36882;27.680;85.304;2022-07-10T12:11:29;29.20;90.80
50907;DHT22;36882;27.680;85.304;2022-07-10T12:14:35;29.10;90.70
50907;DHT22;36882;27.680;85.304;2022-07-10T12:17:51;29.00;90.90
50907;DHT22;36882;27.680;85.304;2022-07-10T12:20:38;28.90;90.80
50907;DHT22;36882;27.680;85.304;2022-07-10T12:23:46;28.90;90.60
50907;DHT22;36882;27.680;85.304;2022-07-10T12:27:07;28.90;90.60
50907;DHT22;36882;27.680;85.304;2022-07-10T12:30:16;29.00;90.40
50907;DHT22;36882;27.680;85.304;2022-07-10T12:32:52;28.90;90.30
50907;DHT22;36882;27.680;85.304;2022-07-10T12:36:22;29.00;90.30
50907;DHT22;36882;27.680;85.304;2022-07-10T12:39:18;29.10;90.60
50907;DHT22;36882;27.680;85.304;2022-07-10T12:42:05;29.20;90.40
50907;DHT22;36882;27.680;85.304;2022-07-10T12:48:01;29.00;89.90
50907;DHT22;36882;27.680;85.304;2022-07-10T12:51:25;28.90;90.10
50907;DHT22;36882;27.680;85.304;2022-07-10T12:54:36;28.70;90.30
50907;DHT22;36882;27.680;85.304;2022-07-10T13:00:35;28.50;90.60
50907;DHT22;36882;27.680;85.304;2022-07-10T13:03:26;28.50;90.50
50907;DHT22;36882;27.680;85.304;2022-07-10T13:05:59;28.50;90.60
50907;DHT22;36882;27.680;85.304;2022-07-10T13:08:29;28.60;90.70
50907;DHT22;36882;27.680;85.304;2022-07-10T13:11:16;28.70;89.80
50907;DHT22;36882;27.680;85.304;2022-07-10T13:14:06;28.90;89.70
50907;DHT22;36882;27.680;85.304;2022-07-10T13:16:36;28.80;91.00
50907;DHT22;36882;27.680;85.304;2022-07-10T13:19:34;28.80;92.20
50907;DHT22;36882;27.680;85.304;2022-07-10T13:22:22;28.40;92.80
50907;DHT22;36882;27.680;85.304;2022-07-10T13:24:52;28.20;93.50
50907;DHT22;36882;27.680;85.304;2022-07-10T13:27:42;28.00;93.90
50907;DHT22;36882;27.680;85.304;2022-07-10T13:30:39;27.80;94.20
50907;DHT22;36882;27.680;85.304;2022-07-10T13:33:09;27.80;93.80
50907;DHT22;36882;27.680;85.304;2022-07-10T13:35:40;27.70;94.00
50907;DHT22;36882;27.680;85.304;2022-07-10T13:38:44;27.60;94.20
50907;DHT22;36882;27.680;85.304;2022-07-10T13:41:45;27.60;94.50
50907;DHT22;36882;27.680;85.304;2022-07-10T13:44:35;27.70;94.50
50907;DHT22;36882;27.680;85.304;2022-07-10T13:47:25;27.70;94.20
50907;DHT22;36882;27.680;85.304;2022-07-10T13:50:29;27.50;93.90
50907;DHT22;36882;27.680;85.304;2022-07-10T13:53:16;27.40;94.20
50907;DHT22;36882;27.680;85.304;2022-07-10T13:56:06;27.10;94.40
50907;DHT22;36882;27.680;85.304;2022-07-10T13:59:22;26.90;95.10
50907;DHT22;36882;27.680;85.304;2022-07-10T14:02:18;26.60;95.60
50907;DHT22;36882;27.680;85.304;2022-07-10T14:04:50;26.60;95.90
50907;DHT22;36882;27.680;85.304;2022-07-10T14:07:53;26.40;96.20
50907;DHT22;36882;27.680;85.304;2022-07-10T14:14:23;26.10;97.10
50907;DHT22;36882;27.680;85.304;2022-07-10T14:16:54;26.10;96.90
50907;DHT22;36882;27.680;85.304;2022-07-10T14:19:37;26.10;96.90
50907;DHT22;36882;27.680;85.304;2022-07-10T14:22:10;26.10;96.80
50907;DHT22;36882;27.680;85.304;2022-07-10T14:24:41;26.20;96.60
50907;DHT22;36882;27.680;85.304;2022-07-10T14:27:31;26.30;96.60
50907;DHT22;36882;27.680;85.304;2022-07-10T14:30:05;26.40;96.30
50907;DHT22;36882;27.680;85.304;2022-07-10T14:33:11;26.40;96.50
50907;DHT22;36882;27.680;85.304;2022-07-10T14:36:26;26.30;96.50
50907;DHT22;36882;27.680;85.304;2022-07-10T14:38:57;26.30;96.30
50907;DHT22;36882;27.680;85.304;2022-07-10T14:41:47;26.20;96.60
50907;DHT22;36882;27.680;85.304;2022-07-10T14:44:38;26.20;96.80
50907;DHT22;36882;27.680;85.304;2022-07-10T14:47:40;26.10;96.70
50907;DHT22;36882;27.680;85.304;2022-07-10T14:50:26;26.00;96.70
50907;DHT22;36882;27.680;85.304;2022-07-10T14:53:14;25.90;96.80
50907;DHT22;36882;27.680;85.304;2022-07-10T14:56:09;26.00;96.60
50907;DHT22;36882;27.680;85.304;2022-07-10T14:58:46;25.90;96.80
50907;DHT22;36882;27.680;85.304;2022-07-10T15:02:00;26.00;97.10
50907;DHT22;36882;27.680;85.304;2022-07-10T15:04:47;26.10;97.10
50907;DHT22;36882;27.680;85.304;2022-07-10T15:07:37;26.30;96.80
50907;DHT22;36882;27.680;85.304;2022-07-10T15:10:11;26.40;96.70
50907;DHT22;36882;27.680;85.304;2022-07-10T15:13:03;26.50;96.70
50907;DHT22;36882;27.680;85.304;2022-07-10T15:16:03;26.60;96.50
50907;DHT22;36882;27.680;85.304;2022-07-10T15:18:34;26.70;96.40
50907;DHT22;36882;27.680;85.304;2022-07-10T15:21:27;26.80;96.10
50907;DHT22;36882;27.680;85.304;2022-07-10T15:24:31;26.80;96.00
50907;DHT22;36882;27.680;85.304;2022-07-10T15:27:49;26.90;96.00
50907;DHT22;36882;27.680;85.304;2022-07-10T15:30:37;26.90;95.80
50907;DHT22;36882;27.680;85.304;2022-07-10T15:33:20;27.00;95.70
50907;DHT22;36882;27.680;85.304;2022-07-10T15:35:50;27.00;95.70
50907;DHT22;36882;27.680;85.304;2022-07-10T15:41:20;27.00;95.50
50907;DHT22;36882;27.680;85.304;2022-07-10T15:44:00;27.00;95.60
50907;DHT22;36882;27.680;85.304;2022-07-10T15:46:51;27.10;95.20
50907;DHT22;36882;27.680;85.304;2022-07-10T15:49:50;27.10;95.40
50907;DHT22;36882;27.680;85.304;2022-07-10T15:53:11;27.10;95.40
50907;DHT22;36882;27.680;85.304;2022-07-10T15:55:54;27.10;95.50
50907;DHT22;36882;27.680;85.304;2022-07-10T15:58:25;27.10;95.40
50907;DHT22;36882;27.680;85.304;2022-07-10T16:00:56;27.10;95.60
50907;DHT22;36882;27.680;85.304;2022-07-10T16:03:27;27.10;95.80
50907;DHT22;36882;27.680;85.304;2022-07-10T16:05:58;27.00;96.10
50907;DHT22;36882;27.680;85.304;2022-07-10T16:08:29;27.00;96.30
50907;DHT22;36882;27.680;85.304;2022-07-10T16:11:00;27.10;96.30
50907;DHT22;36882;27.680;85.304;2022-07-10T16:13:31;27.00;96.20
50907;DHT22;36882;27.680;85.304;2022-07-10T16:16:01;27.00;96.30
50907;DHT22;36882;27.680;85.304;2022-07-10T16:18:32;27.00;96.30
50907;DHT22;36882;27.680;85.304;2022-07-10T16:21:03;27.10;96.10
50907;DHT22;36882;27.680;85.304;2022-07-10T16:23:37;27.10;96.10
50907;DHT22;36882;27.680;85.304;2022-07-10T16:26:09;27.10;96.00
50907;DHT22;36882;27.680;85.304;2022-07-10T16:28:41;27.10;96.20
50907;DHT22;36882;27.680;85.304;2022-07-10T16:31:12;27.10;96.20
50907;DHT22;36882;27.680;85.304;2022-07-10T16:33:43;27.10;96.10
50907;DHT22;36882;27.680;85.304;2022-07-10T16:36:15;27.10;96.10
50907;DHT22;36882;27.680;85.304;2022-07-10T16:38:46;27.10;96.30
50907;DHT22;36882;27.680;85.304;2022-07-10T16:41:16;27.10;96.50
50907;DHT22;36882;27.680;85.304;2022-07-10T16:43:47;27.20;96.30
50907;DHT22;36882;27.680;85.304;2022-07-10T16:46:18;27.10;96.20
50907;DHT22;36882;27.680;85.304;2022-07-10T16:48:49;27.20;96.20
50907;DHT22;36882;27.680;85.304;2022-07-10T16:51:19;27.30;95.90
50907;DHT22;36882;27.680;85.304;2022-07-10T16:53:52;27.30;95.90
50907;DHT22;36882;27.680;85.304;2022-07-10T16:56:43;27.30;96.00
50907;DHT22;36882;27.680;85.304;2022-07-10T16:59:14;27.20;96.00
50907;DHT22;36882;27.680;85.304;2022-07-10T17:01:45;27.20;95.80
50907;DHT22;36882;27.680;85.304;2022-07-10T17:04:16;27.20;96.10
50907;DHT22;36882;27.680;85.304;2022-07-10T17:07:06;27.10;96.10
50907;DHT22;36882;27.680;85.304;2022-07-10T17:09:37;27.10;96.50
50907;DHT22;36882;27.680;85.304;2022-07-10T17:12:08;27.10;96.50
50907;DHT22;36882;27.680;85.304;2022-07-10T17:14:38;27.20;96.50
50907;DHT22;36882;27.680;85.304;2022-07-10T17:20:08;27.20;96.50
50907;DHT22;36882;27.680;85.304;2022-07-10T17:23:05;27.20;96.60
50907;DHT22;36882;27.680;85.304;2022-07-10T17:25:50;27.20;96.80
50907;DHT22;36882;27.680;85.304;2022-07-10T17:28:20;27.20;96.70
50907;DHT22;36882;27.680;85.304;2022-07-10T17:33:49;27.20;96.60
50907;DHT22;36882;27.680;85.304;2022-07-10T17:36:58;27.20;96.60
50907;DHT22;36882;27.680;85.304;2022-07-10T17:40:01;27.20;96.50
50907;DHT22;36882;27.680;85.304;2022-07-10T17:42:32;27.10;96.30
50907;DHT22;36882;27.680;85.304;2022-07-10T17:45:35;27.10;96.30
50907;DHT22;36882;27.680;85.304;2022-07-10T17:48:06;27.10;96.40
50907;DHT22;36882;27.680;85.304;2022-07-10T17:51:01;27.10;97.10
50907;DHT22;36882;27.680;85.304;2022-07-10T17:53:59;27.00;97.30
50907;DHT22;36882;27.680;85.304;2022-07-10T17:57:06;27.00;97.20
50907;DHT22;36882;27.680;85.304;2022-07-10T18:00:31;27.00;97.50
50907;DHT22;36882;27.680;85.304;2022-07-10T18:04:05;27.00;97.40
50907;DHT22;36882;27.680;85.304;2022-07-10T18:06:36;27.00;97.30
50907;DHT22;36882;27.680;85.304;2022-07-10T18:09:07;27.00;97.10
50907;DHT22;36882;27.680;85.304;2022-07-10T18:11:44;27.00;97.10
50907;DHT22;36882;27.680;85.304;2022-07-10T18:14:15;27.00;97.40
50907;DHT22;36882;27.680;85.304;2022-07-10T18:16:46;27.00;97.30
50907;DHT22;36882;27.680;85.304;2022-07-10T18:19:40;27.00;97.20
50907;DHT22;36882;27.680;85.304;2022-07-10T18:22:11;27.00;97.20
50907;DHT22;36882;27.680;85.304;2022-07-10T18:25:16;27.00;97.00
50907;DHT22;36882;27.680;85.304;2022-07-10T18:28:07;26.90;97.20
50907;DHT22;36882;27.680;85.304;2022-07-10T18:30:50;26.80;97.30
50907;DHT22;36882;27.680;85.304;2022-07-10T18:33:26;26.80;97.20
50907;DHT22;36882;27.680;85.304;2022-07-10T18:36:31;26.80;97.30
50907;DHT22;36882;27.680;85.304;2022-07-10T18:39:17;26.80;97.50
50907;DHT22;36882;27.680;85.304;2022-07-10T18:42:07;26.70;97.50
50907;DHT22;36882;27.680;85.304;2022-07-10T18:44:47;26.80;97.60
50907;DHT22;36882;27.680;85.304;2022-07-10T18:47:23;26.80;97.60
50907;DHT22;36882;27.680;85.304;2022-07-10T18:49:57;26.70;97.70
50907;DHT22;36882;27.680;85.304;2022-07-10T18:52:51;26.80;97.90
50907;DHT22;36882;27.680;85.304;2022-07-10T18:55:46;26.80;97.70
50907;DHT22;36882;27.680;85.304;2022-07-10T18:58:56;26.80;97.80
50907;DHT22;36882;27.680;85.304;2022-07-10T19:01:58;26.80;97.70
50907;DHT22;36882;27.680;85.304;2022-07-10T19:04:41;26.90;97.90
50907;DHT22;36882;27.680;85.304;2022-07-10T19:07:33;26.90;97.30
50907;DHT22;36882;27.680;85.304;2022-07-10T19:10:04;26.80;97.40
50907;DHT22;36882;27.680;85.304;2022-07-10T19:12:37;26.70;97.20
50907;DHT22;36882;27.680;85.304;2022-07-10T19:15:08;26.70;97.20
50907;DHT22;36882;27.680;85.304;2022-07-10T19:17:44;26.60;97.20
50907;DHT22;36882;27.680;85.304;2022-07-10T19:20:25;26.50;97.50
50907;DHT22;36882;27.680;85.304;2022-07-10T19:23:14;26.50;97.40
50907;DHT22;36882;27.680;85.304;2022-07-10T19:26:03;26.50;97.40
50907;DHT22;36882;27.680;85.304;2022-07-10T19:29:01;26.50;97.20
50907;DHT22;36882;27.680;85.304;2022-07-10T19:32:27;26.50;96.90
50907;DHT22;36882;27.680;85.304;2022-07-10T19:35:32;26.50;97.10
50907;DHT22;36882;27.680;85.304;2022-07-10T19:38:32;26.50;97.50
50907;DHT22;36882;27.680;85.304;2022-07-10T19:41:34;26.60;97.20
50907;DHT22;36882;27.680;85.304;2022-07-10T19:44:46;26.60;97.00
50907;DHT22;36882;27.680;85.304;2022-07-10T19:47:45;26.60;97.20
50907;DHT22;36882;27.680;85.304;2022-07-10T19:50:32;26.60;97.00
50907;DHT22;36882;27.680;85.304;2022-07-10T19:53:46;26.60;97.10
50907;DHT22;36882;27.680;85.304;2022-07-10T19:56:44;26.60;97.20
50907;DHT22;36882;27.680;85.304;2022-07-10T19:59:16;26.60;97.50
50907;DHT22;36882;27.680;85.304;2022-07-10T20:02:12;26.60;97.20
50907;DHT22;36882;27.680;85.304;2022-07-10T20:05:12;26.60;97.00
50907;DHT22;36882;27.680;85.304;2022-07-10T20:08:03;26.60;97.10
50907;DHT22;36882;27.680;85.304;2022-07-10T20:10:48;26.60;96.90
50907;DHT22;36882;27.680;85.304;2022-07-10T20:13:20;26.50;97.50
50907;DHT22;36882;27.680;85.304;2022-07-10T20:15:51;26.50;97.50
50907;DHT22;36882;27.680;85.304;2022-07-10T20:18:41;26.40;97.60
50907;DHT22;36882;27.680;85.304;2022-07-10T20:21:11;26.40;97.90
50907;DHT22;36882;27.680;85.304;2022-07-10T20:24:18;26.40;97.70
50907;DHT22;36882;27.680;85.304;2022-07-10T20:27:01;26.30;97.90
50907;DHT22;36882;27.680;85.304;2022-07-10T20:29:46;26.40;98.00
50907;DHT22;36882;27.680;85.304;2022-07-10T20:32:30;26.30;98.10
50907;DHT22;36882;27.680;85.304;2022-07-10T20:35:19;26.30;98.30
50907;DHT22;36882;27.680;85.304;2022-07-10T20:38:01;26.30;98.20
50907;DHT22;36882;27.680;85.304;2022-07-10T20:40:52;26.30;97.90
50907;DHT22;36882;27.680;85.304;2022-07-10T20:43:35;26.40;97.20
50907;DHT22;36882;27.680;85.304;2022-07-10T20:46:17;26.30;96.60
50907;DHT22;36882;27.680;85.304;2022-07-10T20:49:15;26.40;96.80
50907;DHT22;36882;27.680;85.304;2022-07-10T20:51:58;26.40;96.50
50907;DHT22;36882;27.680;85.304;2022-07-10T20:54:45;26.50;96.70
50907;DHT22;36882;27.680;85.304;2022-07-10T20:57:15;26.40;96.40
50907;DHT22;36882;27.680;85.304;2022-07-10T20:59:47;26.50;96.40
50907;DHT22;36882;27.680;85.304;2022-07-10T21:02:19;26.40;96.60
50907;DHT22;36882;27.680;85.304;2022-07-10T21:04:59;26.40;96.80
50907;DHT22;36882;27.680;85.304;2022-07-10T21:07:45;26.40;96.30
50907;DHT22;36882;27.680;85.304;2022-07-10T21:10:35;26.40;96.50
50907;DHT22;36882;27.680;85.304;2022-07-10T21:13:15;26.50;96.60
50907;DHT22;36882;27.680;85.304;2022-07-10T21:15:47;26.50;96.70
50907;DHT22;36882;27.680;85.304;2022-07-10T21:18:30;26.40;96.60